Más de esta sección

VUELOS DE BAJOS NIVEL - Aeronáutica

 

                   

                       

                     VUELOS DE BAJO NIVEL DESDE SUPERFICIE HASTA 24,000 PIES

VALIDO DESDE 301200Z...………………HASTA 010000ZSALIDA  Y  PUESTA  DEL  SOL  06:29/18:28 

SANTO DOMINGO FIR...PORT-AU-PRINCE FIR

SCT020 SCT-BKN040 TOP ABV FL240. SCT SHRA. WDLY SCT TSRA.

  OTLK...VFR SHRA TSRA.

 

 

  5,000 FT.

  10,000 FT.

  18,000 FT.

  24,000 FT.

MDSD

  1810KT+18ºC

  1810KT+08ºC

  1810KT-07ºC

  2205KT-17ºC

MTPP

  2205KT+18ºC

  3205KT+08ºC

 3610KT-07ºC

  0410KT-17ºC

TJSJ

  1815KT+18ºC

  1810KT+09ºC

  1815KT-06ºC

  1820KT-17ºC

 

 

 

 

 

TAF

TAF MDPP 301000Z 3012/0112 00000KT 9999 SCT016 PROB30 3012/3018 7000 -TSRA FEW016CB BKN017 BKN300 BECMG 3014/3016 09016KT=

TAF MDST 301000Z 3012/0112 10006KT 9999 SCT022 PROB30 3018/0100 7000 -TSRA FEW016CB BKN018 TEMPO 3011/3013 4000 BR=

TAF MDPC 301000Z 3012/0112 19005KT 9999  FEW016CB BKN018  SCT300 PROB30 3013/3018 8000 -TSRA FEW016CB BKN018 SCT070=

TAF MDBH 301000Z 3012/0112 00000KT 9999 FEW018CB FEW018 BKN300 FM301600 13010KT PROB30 3018/3023 8000 -TSRA FEW016CB BKN018 SCT070=

TAF MDJB 301000Z 3012/0112 00000KT 9999 FEW016CB SCT018 SCT300 FM301500 18010KT PROB30 3018/0100 7000 -TSRA FEW014CB BKN016 BKN300=

TAF MDSD 301000Z 3012/0112 00000KT 9999 FEW016CB SCT018 BKN300 TEMPO 3012/3018 8000 -TSRA FEW016CB BKN016 BKN300 FM301500 18008KT=

TAF MDLR 301000Z 3012/0112 00000KT 9999 FEW018CB SCT018 BKN300 TEMPO 3012/3018 6000 TSRA FEW015CB BKN016 BKN300 FM301500 16010KT= 

TAF MDCY 301000Z 3012/0112 00000KT 9999 FEW018CB FEW018 SCT300 PROB40 3015/3021 7000 TSRA FEW016CB BKN016 SCT070=       

KMIA 300840Z 3009/0112 32008KT P6SM SKC FM301400 32008KT P6SM FEW030 SCT050
  FM010100 VRB04KT P6SM FEW030

KJFK 300818Z 3008/0112 03009KT P6SM BKN250 FM301500 05012KT P6SM BKN200
  FM010300 08010KT P6SM FEW020 OVC100 FM010600 05013KT 6SM -SHRA FEW015 OVC035

TJSJ 300540Z 3006/0106 07003KT P6SM FEW060 FM301300 13008KT P6SM FEW035 BKN050
  FM301700 09010KT P6SM SHRA VCTS SCT030CB BKN060 FM302200 13006KT P6SM FEW035 SCT050 FM010200 11003KT P6SM FEW018 FEW035

MUHA 300500Z 3006/0106 VRB03KT 9000 FEW030 BECMG 3015/3017 35010KT
  BECMG 0100/0102 VRB03KT

TAF MUGM 3007/0107 35008KT 9999 FEW030 SCT100 BKN250 QNH2976INS BECMG 3014/3016 21013KT 9999 VCSH FEW035CB SCT100 BKN250 QNH2974INS TEMPO 3018/0100 21018KT 8000 -SHRA SCT030CB BKN080 BKN250 BECMG 0101/0103 34009KT 9999 FEW035 SCT100 BKN250 QNH2979INS T26/3010Z T31/3017Z

TAF TNCC 300500Z 3006/0106 VRB05KT 9999 FEW016 TEMPO 3006/0106 4000 SHRA BKN014
  PROB40 TEMPO 3006/0106 VRB05G25KT 2000 TSRA SCT012CB

TAF MKJP 300515Z 3006/0106 34004KT 9999 FEW020 FEW022CB BECMG 3014/3016 17008KT TEMPO 3016/3024 5000 TSRA BKN018CB BECMG 3023/0101 34003KT TEMPO 0102/0106 4000 TSRA BKN016CB

PREPARADO POR: FRANCISCA RODRIGUEZ 30 DE SEPTIEMBRE DE 2022.